Time;durP1;ratioP1;P1;durP2;ratioP2;P2;SDS_P1;SDS_P2;PMS_P1;PMS_P2;Temp;Humidity;BMP_temperature;BMP_pressure;BME280_temperature;BME280_humidity;BME280_pressure;Samples;Min_cycle;Max_cycle;Signal;HPM_P1;HPM_P2
2023/06/23 00:00:09;;;;;;;10.85;7.25;;;18.40;99.90;;;;;;5067668;28;20438;-78
2023/06/23 00:02:35;;;;;;;8.60;7.65;;;18.40;99.90;;;;;;5068424;28;20105;-77
2023/06/23 00:05:05;;;;;;;8.20;7.00;;;18.40;99.90;;;;;;5068793;28;20052;-78
2023/06/23 00:07:31;;;;;;;11.63;7.53;;;18.40;99.90;;;;;;5050766;28;20673;-78
2023/06/23 00:09:56;;;;;;;8.93;6.65;;;18.40;99.90;;;;;;5068319;28;20052;-78
2023/06/23 00:12:24;;;;;;;12.18;6.40;;;18.40;99.90;;;;;;5051515;28;20087;-78
2023/06/23 00:14:50;;;;;;;9.35;6.72;;;18.40;99.90;;;;;;5034429;28;20048;-77
2023/06/23 00:17:15;;;;;;;8.95;6.60;;;18.40;99.90;;;;;;5069022;28;20048;-78
2023/06/23 00:19:41;;;;;;;12.10;7.07;;;18.30;99.90;;;;;;5067493;28;20448;-78
2023/06/23 00:22:07;;;;;;;8.38;6.95;;;17.90;99.90;;;;;;5067515;28;20056;-77
2023/06/23 00:24:33;;;;;;;9.93;7.13;;;18.40;99.90;;;;;;5068212;28;20076;-79
2023/06/23 00:27:01;;;;;;;7.45;6.30;;;17.40;99.90;;;;;;5073066;28;20041;-79
2023/06/23 00:29:30;;;;;;;8.75;6.90;;;18.40;99.90;;;;;;5073752;28;20044;-78
2023/06/23 00:31:56;;;;;;;8.57;6.82;;;18.40;99.90;;;;;;5068487;28;20488;-78
2023/06/23 00:34:22;;;;;;;9.48;6.57;;;18.40;99.90;;;;;;5060366;28;20070;-77
2023/06/23 00:36:48;;;;;;;9.88;7.28;;;18.40;99.90;;;;;;5067364;28;20083;-78
2023/06/23 00:39:13;;;;;;;8.60;7.18;;;18.40;99.90;;;;;;5067416;28;20044;-77
2023/06/23 00:41:39;;;;;;;9.82;7.05;;;18.30;99.90;;;;;;5050969;28;20044;-78
2023/06/23 00:44:10;;;;;;;9.77;7.18;;;18.40;99.90;;;;;;5067399;28;20476;-77
2023/06/23 00:46:36;;;;;;;10.93;7.00;;;18.30;99.90;;;;;;5050948;28;20048;-78
2023/06/23 00:49:02;;;;;;;10.93;8.23;;;18.30;99.90;;;;;;5066738;28;20048;-77
2023/06/23 00:51:28;;;;;;;11.85;8.23;;;18.30;99.90;;;;;;5068942;28;20359;-77
2023/06/23 00:53:55;;;;;;;13.18;8.20;;;18.30;99.90;;;;;;5067511;28;20052;-78
2023/06/23 00:56:24;;;;;;;10.93;8.40;;;18.30;99.90;;;;;;5049852;28;20040;-79
2023/06/23 00:58:50;;;;;;;12.77;8.95;;;18.30;99.90;;;;;;5067938;28;20328;-77
2023/06/23 01:01:16;;;;;;;12.85;8.73;;;18.20;99.90;;;;;;5067408;28;20086;-78
2023/06/23 01:03:43;;;;;;;11.75;8.68;;;18.20;99.90;;;;;;5049484;28;20071;-79
2023/06/23 01:06:16;;;;;;;12.20;8.50;;;18.20;99.90;;;;;;5068700;28;20399;-78
2023/06/23 01:09:12;;;;;;;16.35;8.95;;;18.20;99.90;;;;;;5069149;28;20059;-78
2023/06/23 01:11:47;;;;;;;9.98;8.32;;;18.20;99.90;;;;;;5044180;28;20048;-78
2023/06/23 01:14:24;;;;;;;17.98;8.77;;;18.20;99.90;;;;;;5049678;28;20047;-78
2023/06/23 01:17:25;;;;;;;13.30;8.20;;;18.20;99.90;;;;;;5068707;28;20055;-78
2023/06/23 01:20:12;;;;;;;10.98;8.55;;;18.20;99.90;;;;;;5057415;28;20057;-78
2023/06/23 01:22:51;;;;;;;12.13;8.40;;;18.10;99.90;;;;;;5035940;28;20044;-78
2023/06/23 01:25:41;;;;;;;11.40;8.35;;;18.10;99.90;;;;;;5067283;28;20047;-78
2023/06/23 01:28:31;;;;;;;9.45;8.48;;;18.10;99.90;;;;;;5067138;28;20044;-79
2023/06/23 01:31:00;;;;;;;12.32;9.20;;;18.10;99.90;;;;;;5069124;28;20135;-78
2023/06/23 01:33:37;;;;;;;11.20;8.85;;;18.10;99.90;;;;;;5073782;28;20491;-79
2023/06/23 01:36:20;;;;;;;10.45;8.52;;;18.10;99.90;;;;;;5057211;28;20507;-78
2023/06/23 01:38:52;;;;;;;12.75;8.73;;;18.10;99.90;;;;;;5073420;28;20052;-78
2023/06/23 01:41:26;;;;;;;13.23;9.15;;;18.00;99.90;;;;;;5056506;28;20044;-77
2023/06/23 01:43:55;;;;;;;10.57;8.82;;;18.00;99.90;;;;;;5056900;28;20044;-78
2023/06/23 01:46:27;;;;;;;12.95;8.80;;;17.90;99.90;;;;;;5039669;28;21122;-78
2023/06/23 01:49:01;;;;;;;10.70;8.50;;;18.00;99.90;;;;;;5073936;28;20048;-78
2023/06/23 01:51:28;;;;;;;10.30;9.13;;;18.00;99.90;;;;;;5073743;28;20435;-78
2023/06/23 01:53:58;;;;;;;10.80;8.90;;;18.00;99.90;;;;;;5074185;28;20539;-78
2023/06/23 01:56:25;;;;;;;13.05;10.50;;;18.00;99.90;;;;;;5073807;28;20202;-78
2023/06/23 01:58:52;;;;;;;14.68;9.00;;;17.90;99.90;;;;;;5075471;28;20041;-78
2023/06/23 02:01:20;;;;;;;9.82;8.80;;;18.00;99.90;;;;;;5074653;28;20047;-78
2023/06/23 02:03:49;;;;;;;13.52;8.15;;;17.90;99.90;;;;;;5057307;28;20407;-77
2023/06/23 02:06:16;;;;;;;12.20;8.38;;;17.70;99.90;;;;;;5083238;28;20056;-78
2023/06/23 02:08:44;;;;;;;14.00;8.25;;;18.00;99.90;;;;;;5074517;28;20102;-78
2023/06/23 02:11:11;;;;;;;11.80;8.63;;;18.00;99.90;;;;;;5056773;28;20131;-78
2023/06/23 02:13:40;;;;;;;10.43;8.38;;;18.00;99.90;;;;;;5072702;28;20059;-78
2023/06/23 02:16:11;;;;;;;10.75;8.27;;;18.00;99.90;;;;;;5074664;28;20045;-78
2023/06/23 02:18:41;;;;;;;11.85;8.38;;;17.90;99.90;;;;;;5073881;28;20346;-79
2023/06/23 02:21:09;;;;;;;9.93;8.50;;;17.90;99.90;;;;;;5055852;28;20127;-79
2023/06/23 02:23:36;;;;;;;14.25;7.38;;;17.90;99.90;;;;;;5056057;28;20115;-79
2023/06/23 02:26:02;;;;;;;13.23;7.55;;;17.80;99.90;;;;;;5073228;28;20048;-79
2023/06/23 02:28:28;;;;;;;10.55;7.15;;;17.80;99.90;;;;;;5073703;28;20048;-79
2023/06/23 02:30:55;;;;;;;9.32;6.80;;;17.90;99.90;;;;;;5056647;28;20485;-79
2023/06/23 02:33:21;;;;;;;7.53;6.35;;;17.90;99.90;;;;;;5072587;28;20048;-78
2023/06/23 02:35:51;;;;;;;11.60;6.50;;;17.90;99.90;;;;;;5073648;28;20101;-79
2023/06/23 02:38:21;;;;;;;11.25;7.60;;;17.90;99.90;;;;;;5072515;28;20041;-78
2023/06/23 02:40:48;;;;;;;9.13;7.13;;;17.90;99.90;;;;;;5056789;28;20056;-79
2023/06/23 02:43:24;;;;;;;10.00;6.82;;;17.80;99.90;;;;;;5068646;28;20365;-78
2023/06/23 02:45:55;;;;;;;8.07;7.15;;;17.80;99.90;;;;;;5070282;28;20048;-79
2023/06/23 02:48:30;;;;;;;11.32;7.32;;;17.80;99.90;;;;;;5070413;28;20408;-79
2023/06/23 02:50:58;;;;;;;6.43;5.78;;;17.80;99.90;;;;;;5053484;28;20404;-79
2023/06/23 02:53:31;;;;;;;8.43;6.47;;;17.80;99.90;;;;;;5052544;28;20125;-77
2023/06/23 02:56:03;;;;;;;9.25;6.93;;;18.00;99.90;;;;;;5052728;28;20389;-78
2023/06/23 02:58:30;;;;;;;8.70;7.25;;;17.80;99.90;;;;;;5053142;28;20032;-78
2023/06/23 03:01:04;;;;;;;8.10;6.30;;;17.80;99.90;;;;;;5069674;28;20041;-78
2023/06/23 03:03:33;;;;;;;10.50;5.97;;;17.70;99.90;;;;;;5068479;28;20491;-78
2023/06/23 03:05:59;;;;;;;10.18;5.60;;;17.70;99.90;;;;;;5053381;28;20167;-78
2023/06/23 03:08:25;;;;;;;8.20;6.10;;;17.70;99.90;;;;;;5052763;28;20594;-79
2023/06/23 03:10:51;;;;;;;8.85;6.25;;;17.70;99.90;;;;;;5068980;28;20051;-78
2023/06/23 03:13:18;;;;;;;8.98;6.25;;;17.70;99.90;;;;;;5068513;28;20094;-80
2023/06/23 03:15:47;;;;;;;8.38;6.20;;;17.60;99.90;;;;;;5053027;28;20344;-78
2023/06/23 03:18:20;;;;;;;8.00;5.47;;;17.60;99.90;;;;;;5051594;28;20048;-78
2023/06/23 03:20:50;;;;;;;15.93;6.80;;;17.60;99.90;;;;;;5069535;28;20079;-78
2023/06/23 03:23:18;;;;;;;9.63;6.65;;;17.60;99.90;;;;;;5068426;28;20047;-78
2023/06/23 03:25:48;;;;;;;7.72;5.82;;;17.60;99.90;;;;;;5052826;28;20123;-79
2023/06/23 03:28:25;;;;;;;8.50;5.78;;;17.60;99.90;;;;;;5068650;28;20125;-78
2023/06/23 03:31:07;;;;;;;8.27;5.63;;;17.50;99.90;;;;;;5069753;28;20527;-78
2023/06/23 03:33:42;;;;;;;8.10;6.03;;;17.50;99.90;;;;;;5068830;28;20048;-78
2023/06/23 03:36:23;;;;;;;9.65;5.50;;;17.40;99.90;;;;;;5052395;28;20039;-79
2023/06/23 03:39:20;;;;;;;9.70;4.88;;;17.40;99.90;;;;;;5045993;28;20174;-79
2023/06/23 03:41:48;;;;;;;8.43;5.20;;;17.40;99.90;;;;;;5046444;28;20040;-78
2023/06/23 03:44:31;;;;;;;7.55;5.63;;;17.40;99.90;;;;;;5078585;28;20063;-78
2023/06/23 03:47:01;;;;;;;6.87;4.60;;;17.40;99.90;;;;;;5070444;28;20610;-78
2023/06/23 03:49:32;;;;;;;10.23;5.07;;;17.30;99.90;;;;;;5068424;28;20525;-78
2023/06/23 03:52:00;;;;;;;7.40;5.22;;;17.30;99.90;;;;;;5051751;28;20047;-78
2023/06/23 03:54:31;;;;;;;10.05;5.30;;;17.30;99.90;;;;;;5068111;28;20045;-79
2023/06/23 03:56:59;;;;;;;6.50;5.82;;;17.20;99.90;;;;;;5068758;28;20055;-78
2023/06/23 03:59:27;;;;;;;7.82;5.57;;;17.20;99.90;;;;;;5067424;28;20049;-78
2023/06/23 04:01:54;;;;;;;7.93;4.95;;;17.20;99.90;;;;;;5052164;28;20041;-79
2023/06/23 04:04:25;;;;;;;8.45;5.25;;;17.20;99.90;;;;;;5067352;28;20532;-78
2023/06/23 04:06:53;;;;;;;12.07;5.35;;;17.20;99.90;;;;;;5067923;28;20041;-79
2023/06/23 04:09:20;;;;;;;6.03;5.28;;;17.20;99.90;;;;;;5051296;28;20543;-78
2023/06/23 04:11:49;;;;;;;7.55;5.40;;;17.20;99.90;;;;;;5069774;28;20032;-78
2023/06/23 04:14:17;;;;;;;6.88;6.03;;;17.20;99.90;;;;;;5050156;28;20137;-79
2023/06/23 04:16:45;;;;;;;6.75;6.03;;;18.00;99.90;;;;;;5069830;28;20036;-79
2023/06/23 04:19:13;;;;;;;12.30;5.82;;;17.20;99.90;;;;;;5051368;28;20045;-79
2023/06/23 04:21:40;;;;;;;11.35;5.93;;;17.20;99.90;;;;;;5051110;28;20105;-79
2023/06/23 04:24:09;;;;;;;9.13;5.53;;;17.20;99.90;;;;;;5051022;28;20508;-78
2023/06/23 04:26:36;;;;;;;7.35;6.03;;;17.20;99.90;;;;;;5051157;28;20555;-80
2023/06/23 04:29:07;;;;;;;8.60;6.18;;;17.20;99.90;;;;;;5034853;28;20052;-79
2023/06/23 04:31:36;;;;;;;11.05;6.22;;;17.10;99.90;;;;;;5067589;28;20064;-79
2023/06/23 04:34:02;;;;;;;12.85;6.68;;;17.10;99.90;;;;;;5050449;28;20139;-78
2023/06/23 04:36:39;;;;;;;9.52;6.47;;;17.10;99.90;;;;;;5067856;28;20588;-79
2023/06/23 04:39:14;;;;;;;8.80;6.90;;;17.00;99.90;;;;;;5051019;28;20492;-78
2023/06/23 04:41:42;;;;;;;15.88;6.60;;;17.00;99.90;;;;;;5068731;28;20036;-78
2023/06/23 04:44:10;;;;;;;8.43;6.82;;;17.00;99.90;;;;;;5067392;28;20072;-78
2023/06/23 04:46:40;;;;;;;10.88;6.55;;;17.00;99.90;;;;;;5067412;28;20059;-78
2023/06/23 04:49:08;;;;;;;12.07;6.55;;;16.90;99.90;;;;;;5066970;28;20052;-78
2023/06/23 04:51:39;;;;;;;11.65;7.57;;;16.90;99.90;;;;;;5068585;28;20526;-78
2023/06/23 04:54:15;;;;;;;9.27;7.30;;;16.90;99.90;;;;;;5050309;28;20410;-78
2023/06/23 04:56:48;;;;;;;11.68;6.47;;;16.80;99.90;;;;;;5060095;28;20040;-78
2023/06/23 04:59:17;;;;;;;9.55;7.20;;;16.80;99.90;;;;;;5067095;28;20044;-78
2023/06/23 05:01:45;;;;;;;8.05;7.07;;;16.80;99.90;;;;;;5061073;28;20040;-78
2023/06/23 05:04:13;;;;;;;8.40;7.07;;;16.80;99.90;;;;;;5067152;28;20038;-80
2023/06/23 05:06:42;;;;;;;10.88;7.90;;;16.80;99.90;;;;;;5067282;28;20043;-80
2023/06/23 05:09:19;;;;;;;11.90;7.43;;;16.80;99.90;;;;;;5034653;28;20075;-79
2023/06/23 05:11:47;;;;;;;12.90;8.77;;;16.80;99.90;;;;;;5060270;28;20039;-78
2023/06/23 05:14:15;;;;;;;15.68;13.10;;;16.80;99.90;;;;;;5050924;28;20041;-79
2023/06/23 05:16:47;;;;;;;14.82;10.38;;;16.80;99.90;;;;;;5051626;28;20086;-78
2023/06/23 05:19:14;;;;;;;9.55;6.95;;;16.80;99.90;;;;;;5070029;28;20666;-78
2023/06/23 05:21:43;;;;;;;8.32;6.80;;;16.90;99.90;;;;;;5076117;28;20057;-78
2023/06/23 05:24:12;;;;;;;12.32;6.35;;;16.90;99.90;;;;;;5068147;28;20102;-78
2023/06/23 05:26:38;;;;;;;7.32;6.50;;;16.90;99.90;;;;;;5067732;28;20044;-81
2023/06/23 05:29:08;;;;;;;7.28;5.47;;;17.00;99.90;;;;;;5067384;28;20064;-80
2023/06/23 05:31:40;;;;;;;6.85;6.13;;;17.00;99.90;;;;;;5066298;28;20037;-79
2023/06/23 05:34:08;;;;;;;7.95;6.60;;;17.00;99.90;;;;;;5050959;28;20086;-80
2023/06/23 05:36:36;;;;;;;9.10;6.30;;;17.00;99.90;;;;;;5066963;28;20075;-78
2023/06/23 05:39:04;;;;;;;10.30;7.55;;;17.00;99.90;;;;;;5050000;28;20041;-80
2023/06/23 05:41:30;;;;;;;7.18;6.57;;;16.90;99.90;;;;;;5069312;28;20692;-80
2023/06/23 05:43:56;;;;;;;8.98;8.00;;;17.00;99.90;;;;;;5068036;28;20617;-78
2023/06/23 05:46:25;;;;;;;10.40;7.53;;;16.90;99.90;;;;;;5049411;28;20128;-78
2023/06/23 05:48:57;;;;;;;13.35;10.32;;;17.00;99.90;;;;;;5067243;28;20041;-79
2023/06/23 05:51:29;;;;;;;12.27;8.68;;;16.90;99.90;;;;;;5049013;28;20075;-78
2023/06/23 05:53:58;;;;;;;13.75;9.07;;;16.90;99.90;;;;;;5049796;28;20047;-78
2023/06/23 05:56:44;;;;;;;11.95;8.50;;;16.90;99.90;;;;;;5068001;28;20056;-78
2023/06/23 05:59:22;;;;;;;12.45;9.13;;;17.00;99.90;;;;;;5067435;28;20484;-78
2023/06/23 06:01:54;;;;;;;13.27;9.15;;;17.00;99.90;;;;;;5066891;28;20117;-79
2023/06/23 06:04:25;;;;;;;9.80;8.25;;;17.00;99.90;;;;;;5049317;28;20132;-79
2023/06/23 06:06:54;;;;;;;9.05;8.07;;;17.10;99.90;;;;;;5041796;28;20052;-80
2023/06/23 06:09:21;;;;;;;8.30;7.20;;;17.20;99.90;;;;;;5066323;28;20115;-78
2023/06/23 06:11:50;;;;;;;8.80;6.75;;;17.20;99.90;;;;;;5068136;28;20032;-78
2023/06/23 06:14:18;;;;;;;10.75;7.13;;;17.30;99.90;;;;;;5065458;28;20044;-78
2023/06/23 06:16:45;;;;;;;10.20;6.90;;;17.30;99.90;;;;;;5068074;28;20112;-79
2023/06/23 06:19:13;;;;;;;7.45;6.75;;;17.40;99.90;;;;;;5068694;28;20045;-78
2023/06/23 06:21:41;;;;;;;7.35;5.93;;;17.40;99.90;;;;;;5070410;28;20055;-80
2023/06/23 06:24:10;;;;;;;8.00;5.93;;;17.50;99.90;;;;;;5070270;28;20071;-79
2023/06/23 06:26:35;;;;;;;9.25;6.63;;;17.60;99.90;;;;;;5053243;28;20400;-78
2023/06/23 06:29:05;;;;;;;8.15;6.30;;;17.70;99.90;;;;;;5053723;28;20052;-78
2023/06/23 06:31:33;;;;;;;6.90;6.22;;;17.70;99.90;;;;;;5070367;28;20056;-79
2023/06/23 06:34:00;;;;;;;10.38;6.60;;;17.80;99.90;;;;;;5069529;28;20044;-78
2023/06/23 06:36:29;;;;;;;6.82;6.22;;;17.90;99.90;;;;;;5070016;28;20036;-78
2023/06/23 06:38:56;;;;;;;7.28;6.53;;;17.90;99.90;;;;;;5063007;28;20455;-77
2023/06/23 06:41:23;;;;;;;9.38;6.43;;;18.00;99.90;;;;;;5070657;28;20045;-78
2023/06/23 06:43:49;;;;;;;8.55;6.18;;;18.00;99.90;;;;;;5069634;28;20045;-78
2023/06/23 06:46:16;;;;;;;7.45;6.07;;;18.10;99.90;;;;;;5071803;28;20032;-78
2023/06/23 06:48:46;;;;;;;10.07;5.90;;;18.20;99.90;;;;;;5069731;28;20055;-80
2023/06/23 06:51:15;;;;;;;9.02;6.53;;;18.20;99.90;;;;;;5069761;28;20037;-78
2023/06/23 06:53:41;;;;;;;10.98;7.65;;;18.30;99.90;;;;;;5071078;28;20506;-79
2023/06/23 06:56:07;;;;;;;8.85;6.53;;;18.40;99.90;;;;;;5069280;28;20032;-79
2023/06/23 06:58:34;;;;;;;11.57;6.40;;;18.50;99.90;;;;;;5058470;28;20044;-79
2023/06/23 07:01:01;;;;;;;8.93;5.40;;;18.50;99.90;;;;;;5075391;28;20048;-78
2023/06/23 07:03:27;;;;;;;5.93;5.32;;;18.50;99.90;;;;;;5052809;28;20542;-79
2023/06/23 07:05:52;;;;;;;7.55;5.28;;;18.60;99.90;;;;;;5071384;28;20048;-80
2023/06/23 07:08:18;;;;;;;5.25;4.72;;;18.70;99.90;;;;;;5069191;28;20086;-80
2023/06/23 07:10:44;;;;;;;5.72;4.53;;;18.70;99.90;;;;;;5052440;28;20076;-79
2023/06/23 07:13:10;;;;;;;5.20;4.60;;;18.70;99.90;;;;;;5069020;28;20105;-79
2023/06/23 07:15:36;;;;;;;4.70;4.28;;;18.70;99.90;;;;;;5070244;28;20051;-78
2023/06/23 07:18:02;;;;;;;4.63;4.00;;;18.80;99.90;;;;;;5069988;28;20415;-79
2023/06/23 07:20:27;;;;;;;4.28;3.83;;;18.90;99.90;;;;;;5053120;28;20032;-79
2023/06/23 07:22:53;;;;;;;8.30;3.72;;;18.90;99.90;;;;;;5069837;28;20124;-79
2023/06/23 07:25:19;;;;;;;3.55;3.25;;;18.90;99.90;;;;;;5052475;28;20039;-79
2023/06/23 07:27:48;;;;;;;4.10;3.50;;;19.00;99.90;;;;;;5070699;28;20484;-79
2023/06/23 07:30:14;;;;;;;3.92;3.05;;;19.00;99.90;;;;;;5068603;28;20041;-79
2023/06/23 07:32:40;;;;;;;3.67;3.25;;;19.10;99.90;;;;;;5052959;28;20412;-78
2023/06/23 07:35:06;;;;;;;4.88;3.83;;;19.10;99.90;;;;;;5068826;28;20036;-79
2023/06/23 07:37:32;;;;;;;5.40;3.08;;;19.20;99.90;;;;;;5051612;28;20064;-79
2023/06/23 07:39:58;;;;;;;2.97;2.72;;;19.20;99.90;;;;;;5061299;28;20076;-79
2023/06/23 07:42:26;;;;;;;6.25;3.22;;;19.30;99.90;;;;;;5069848;28;20083;-79
2023/06/23 07:44:52;;;;;;;5.93;3.65;;;19.30;99.90;;;;;;5068185;28;20056;-78
2023/06/23 07:47:18;;;;;;;8.82;4.70;;;19.50;99.90;;;;;;5052400;28;20288;-79
2023/06/23 07:49:43;;;;;;;4.38;3.92;;;19.60;99.90;;;;;;5069635;28;20054;-80
2023/06/23 07:52:09;;;;;;;5.82;3.67;;;19.70;99.90;;;;;;5069695;28;20029;-78
2023/06/23 07:54:35;;;;;;;5.20;3.72;;;19.70;99.90;;;;;;5068296;28;20123;-79
2023/06/23 07:57:01;;;;;;;4.30;3.38;;;19.70;99.90;;;;;;5070260;28;20050;-78
2023/06/23 07:59:27;;;;;;;4.18;3.58;;;19.70;99.90;;;;;;5069617;28;20021;-78
2023/06/23 08:01:54;;;;;;;4.82;4.43;;;19.70;99.90;;;;;;5068754;28;20708;-78
2023/06/23 08:04:20;;;;;;;6.85;5.80;;;19.80;99.90;;;;;;5069423;28;20547;-79
2023/06/23 08:06:47;;;;;;;9.20;6.32;;;19.80;99.90;;;;;;5069042;28;20123;-79
2023/06/23 08:09:15;;;;;;;9.50;6.40;;;19.90;99.90;;;;;;5068213;28;20463;-78
2023/06/23 08:11:41;;;;;;;10.77;6.30;;;20.00;99.90;;;;;;5068208;28;20447;-78
2023/06/23 08:14:06;;;;;;;7.05;5.38;;;20.10;99.90;;;;;;5050913;28;20476;-78
2023/06/23 08:16:32;;;;;;;6.95;5.30;;;20.10;99.90;;;;;;5069646;28;20086;-79
2023/06/23 08:18:58;;;;;;;6.35;4.35;;;20.20;99.90;;;;;;5051216;28;20458;-79
2023/06/23 08:21:23;;;;;;;5.22;4.13;;;20.30;99.90;;;;;;5068400;28;20469;-79
2023/06/23 08:23:49;;;;;;;5.28;4.05;;;20.30;99.90;;;;;;5051544;28;20294;-80
2023/06/23 08:26:15;;;;;;;4.90;4.50;;;20.30;99.90;;;;;;5067061;28;20464;-79
2023/06/23 08:28:41;;;;;;;4.75;4.03;;;20.30;99.90;;;;;;5069492;28;20499;-79
2023/06/23 08:31:07;;;;;;;4.30;3.38;;;20.30;99.90;;;;;;5069319;28;20049;-78
2023/06/23 08:33:33;;;;;;;7.38;3.67;;;20.40;99.90;;;;;;5070239;28;20469;-80
2023/06/23 08:36:00;;;;;;;5.95;3.95;;;20.50;99.90;;;;;;5077984;28;20063;-78
2023/06/23 08:38:25;;;;;;;5.43;4.38;;;20.60;99.90;;;;;;5068408;28;20394;-78
2023/06/23 08:40:56;;;;;;;4.40;4.00;;;20.60;99.90;;;;;;5049692;28;20050;-78
2023/06/23 08:43:28;;;;;;;4.13;3.40;;;20.70;99.90;;;;;;5050057;28;20036;-79
2023/06/23 08:45:56;;;;;;;3.53;3.22;;;20.70;99.90;;;;;;5051233;28;20047;-79
2023/06/23 08:48:30;;;;;;;5.22;3.03;;;20.70;99.90;;;;;;5067131;28;20177;-79
2023/06/23 08:51:00;;;;;;;3.85;3.55;;;20.70;99.90;;;;;;5068132;28;20036;-79
2023/06/23 08:53:26;;;;;;;4.93;4.45;;;20.70;99.90;;;;;;5050746;28;20479;-79
2023/06/23 08:55:53;;;;;;;6.95;4.40;;;20.70;99.90;;;;;;5068838;28;20045;-79
2023/06/23 08:58:24;;;;;;;5.93;4.75;;;20.80;99.90;;;;;;5050263;28;20127;-79
2023/06/23 09:00:51;;;;;;;7.88;5.40;;;20.80;99.90;;;;;;5050935;28;20044;-80
2023/06/23 09:03:22;;;;;;;5.82;3.90;;;20.80;99.90;;;;;;5049802;28;20040;-79
2023/06/23 09:05:48;;;;;;;5.35;4.82;;;20.80;99.90;;;;;;5068105;28;20407;-78
2023/06/23 09:08:14;;;;;;;6.00;4.22;;;20.80;99.90;;;;;;5066201;28;20566;-80
2023/06/23 09:10:40;;;;;;;9.00;4.07;;;20.90;99.90;;;;;;5051018;28;20115;-79
2023/06/23 09:13:26;;;;;;;5.20;4.55;;;21.00;99.90;;;;;;5066228;28;20048;-78
2023/06/23 09:15:54;;;;;;;6.80;4.53;;;21.10;99.90;;;;;;5050174;28;20064;-79
2023/06/23 09:18:20;;;;;;;7.55;4.90;;;21.10;99.90;;;;;;5066452;28;20091;-79
2023/06/23 09:20:48;;;;;;;6.22;4.88;;;21.10;99.90;;;;;;5050897;28;20044;-79
2023/06/23 09:23:21;;;;;;;6.80;5.82;;;21.20;99.90;;;;;;5048880;28;20424;-79
2023/06/23 09:25:54;;;;;;;5.75;4.82;;;21.20;99.90;;;;;;5068879;28;20461;-79
2023/06/23 09:28:26;;;;;;;3.00;2.65;;;21.30;99.90;;;;;;5050719;28;20033;-80
2023/06/23 09:30:53;;;;;;;3.42;2.60;;;21.40;99.90;;;;;;5066245;28;20059;-79
2023/06/23 09:33:20;;;;;;;4.75;3.53;;;21.40;99.90;;;;;;5049486;28;20647;-79
2023/06/23 09:35:54;;;;;;;5.80;3.35;;;21.40;99.90;;;;;;5067307;28;20128;-78
2023/06/23 09:38:27;;;;;;;3.42;2.60;;;21.40;99.90;;;;;;5049230;28;20048;-79
2023/06/23 09:41:15;;;;;;;4.75;2.58;;;21.50;99.90;;;;;;5066992;28;20564;-78
2023/06/23 09:43:42;;;;;;;3.47;3.17;;;21.60;99.90;;;;;;5049341;28;20049;-78
2023/06/23 09:46:13;;;;;;;5.32;3.13;;;21.70;99.90;;;;;;5049915;28;20037;-79
2023/06/23 09:48:40;;;;;;;7.55;4.13;;;21.70;99.90;;;;;;5068657;28;20420;-78
2023/06/23 09:51:06;;;;;;;5.15;3.60;;;21.70;99.90;;;;;;5067260;28;20044;-79
2023/06/23 09:53:42;;;;;;;4.80;4.20;;;21.80;99.90;;;;;;5070302;28;20463;-80
2023/06/23 09:56:19;;;;;;;6.72;4.28;;;21.80;99.90;;;;;;5070820;28;20488;-79
2023/06/23 09:58:46;;;;;;;3.80;2.85;;;21.80;99.90;;;;;;5070259;28;20048;-80
2023/06/23 10:01:14;;;;;;;3.13;2.70;;;21.80;99.90;;;;;;5071727;28;20048;-77
2023/06/23 10:03:44;;;;;;;4.82;3.05;;;21.80;99.90;;;;;;5070948;28;20283;-78
2023/06/23 10:06:23;;;;;;;5.15;3.30;;;22.00;99.90;;;;;;5053212;28;20045;-78
2023/06/23 10:08:52;;;;;;;3.38;3.08;;;22.10;99.90;;;;;;5054485;28;20048;-79
2023/06/23 10:11:18;;;;;;;6.53;3.70;;;22.20;99.90;;;;;;5071987;28;20056;-79
2023/06/23 10:13:47;;;;;;;4.28;3.30;;;22.30;99.90;;;;;;5070577;28;20492;-78
2023/06/23 10:16:13;;;;;;;9.13;3.83;;;22.30;99.90;;;;;;5069804;28;20079;-78
2023/06/23 10:18:40;;;;;;;3.67;3.22;;;22.30;99.90;;;;;;5070197;28;20468;-81
2023/06/23 10:21:06;;;;;;;5.03;3.17;;;22.30;99.90;;;;;;5070245;28;20055;-78
2023/06/23 10:23:33;;;;;;;5.68;3.28;;;22.40;99.90;;;;;;5053154;28;20036;-79
2023/06/23 10:26:01;;;;;;;4.18;3.30;;;22.40;99.90;;;;;;5052730;28;20045;-78
2023/06/23 10:28:29;;;;;;;3.40;3.08;;;22.40;99.90;;;;;;5053081;28;20043;-79
2023/06/23 10:30:57;;;;;;;4.35;3.30;;;22.40;99.90;;;;;;5053535;28;20058;-80
2023/06/23 10:33:24;;;;;;;3.97;2.90;;;22.50;99.90;;;;;;5069154;28;20101;-79
2023/06/23 10:35:52;;;;;;;5.15;2.92;;;22.50;99.90;;;;;;5054046;28;20119;-79
2023/06/23 10:38:23;;;;;;;3.47;3.17;;;22.50;99.90;;;;;;5061435;28;20041;-79
2023/06/23 10:40:54;;;;;;;3.35;3.05;;;22.60;99.90;;;;;;5071092;28;20051;-77
2023/06/23 10:43:22;;;;;;;4.75;3.08;;;22.60;99.90;;;;;;5061120;28;20045;-80
2023/06/23 10:45:49;;;;;;;7.15;3.05;;;22.70;99.90;;;;;;5070280;28;20048;-78
2023/06/23 10:48:15;;;;;;;3.83;3.40;;;22.50;99.90;;;;;;5051821;28;20542;-79
2023/06/23 10:50:41;;;;;;;5.78;3.08;;;22.60;99.90;;;;;;5053691;28;20365;-80
2023/06/23 10:53:13;;;;;;;6.78;3.10;;;22.60;99.90;;;;;;5052483;28;20359;-79
2023/06/23 10:55:44;;;;;;;5.35;3.20;;;22.60;99.90;;;;;;5070489;28;20513;-80
2023/06/23 10:58:19;;;;;;;6.05;3.58;;;22.70;99.90;;;;;;5052796;28;20548;-78
2023/06/23 11:01:05;;;;;;;4.80;3.00;;;22.70;99.90;;;;;;5069310;28;20033;-79
2023/06/23 11:03:36;;;;;;;3.40;3.10;;;22.80;99.90;;;;;;5060896;28;20055;-80
2023/06/23 11:06:09;;;;;;;4.20;2.92;;;22.80;99.90;;;;;;5069478;28;20146;-78
2023/06/23 11:08:40;;;;;;;4.13;3.45;;;22.80;99.90;;;;;;5068720;28;20041;-79
2023/06/23 11:11:07;;;;;;;3.83;3.13;;;22.90;99.90;;;;;;5070390;28;20051;-80
2023/06/23 11:13:43;;;;;;;3.05;2.85;;;22.90;99.90;;;;;;5052323;28;20240;-79
2023/06/23 11:16:18;;;;;;;3.85;2.28;;;23.00;99.90;;;;;;5070138;28;20428;-79
2023/06/23 11:18:52;;;;;;;3.60;2.20;;;23.00;99.90;;;;;;5052859;28;20036;-79
2023/06/23 11:21:28;;;;;;;5.60;2.80;;;23.10;99.90;;;;;;5069122;28;20051;-79
2023/06/23 11:24:07;;;;;;;4.63;2.72;;;23.20;99.90;;;;;;5068696;28;20049;-78
2023/06/23 11:26:33;;;;;;;3.70;2.58;;;23.30;99.90;;;;;;5037412;28;20064;-79
2023/06/23 11:29:00;;;;;;;2.97;2.75;;;23.40;99.90;;;;;;5051817;28;20075;-79
2023/06/23 11:31:27;;;;;;;8.85;2.88;;;23.40;99.90;;;;;;5068964;28;20048;-78
2023/06/23 11:34:00;;;;;;;4.43;2.63;;;23.50;99.90;;;;;;5070367;28;20553;-78
2023/06/23 11:36:28;;;;;;;2.85;2.65;;;23.50;99.90;;;;;;5061421;28;20036;-78
2023/06/23 11:38:57;;;;;;;2.92;2.03;;;23.60;99.90;;;;;;5069270;28;20060;-80
2023/06/23 11:41:31;;;;;;;5.53;2.38;;;23.70;99.50;;;;;;5068759;28;20040;-77
2023/06/23 11:44:02;;;;;;;4.28;2.97;;;23.70;98.90;;;;;;5071478;28;20041;-78
2023/06/23 11:46:31;;;;;;;4.47;2.78;;;23.70;99.10;;;;;;5051552;28;20128;-80
2023/06/23 11:48:57;;;;;;;2.08;1.90;;;23.70;99.80;;;;;;5068897;28;20079;-78
2023/06/23 11:51:23;;;;;;;2.53;2.17;;;23.70;98.70;;;;;;5050926;28;20032;-77
2023/06/23 11:53:53;;;;;;;4.00;1.95;;;23.80;98.20;;;;;;5068640;28;20488;-78
2023/06/23 11:56:20;;;;;;;2.70;1.80;;;24.00;98.20;;;;;;5069498;28;20044;-78
2023/06/23 11:58:55;;;;;;;5.25;2.05;;;24.10;97.40;;;;;;5068125;28;20080;-77
2023/06/23 12:01:22;;;;;;;4.60;1.80;;;24.20;95.60;;;;;;5051313;28;20044;-78
2023/06/23 12:03:48;;;;;;;3.25;1.85;;;24.10;94.80;;;;;;5050830;28;20504;-79
2023/06/23 12:06:15;;;;;;;2.00;1.85;;;24.10;94.50;;;;;;5068093;28;20041;-78
2023/06/23 12:08:42;;;;;;;4.90;2.10;;;24.10;94.20;;;;;;5068584;28;20049;-78
2023/06/23 12:11:08;;;;;;;1.90;1.80;;;24.10;94.60;;;;;;5067399;28;20598;-78
2023/06/23 12:13:37;;;;;;;3.08;1.85;;;24.30;94.10;;;;;;5067670;28;20487;-78
2023/06/23 12:16:03;;;;;;;3.53;2.20;;;24.30;92.50;;;;;;5051776;28;20123;-79
2023/06/23 12:18:29;;;;;;;2.30;2.10;;;24.30;93.30;;;;;;5051343;28;20048;-78
2023/06/23 12:20:54;;;;;;;4.55;2.55;;;24.30;93.80;;;;;;5070107;28;20569;-78
2023/06/23 12:23:20;;;;;;;2.17;2.05;;;24.50;95.00;;;;;;5067650;28;20511;-78
2023/06/23 12:25:51;;;;;;;3.33;2.35;;;24.60;95.30;;;;;;5069098;28;20063;-78
2023/06/23 12:28:29;;;;;;;3.75;2.22;;;24.80;94.80;;;;;;5068142;28;20049;-78
2023/06/23 12:30:55;;;;;;;4.38;2.60;;;24.90;95.40;;;;;;5068144;28;20037;-77
2023/06/23 12:33:27;;;;;;;3.10;2.30;;;25.00;94.70;;;;;;5050044;28;20408;-77
2023/06/23 12:36:04;;;;;;;4.68;1.95;;;25.00;94.20;;;;;;5051665;28;20033;-78
2023/06/23 12:38:35;;;;;;;2.58;1.95;;;25.20;94.50;;;;;;5051139;28;20028;-78
2023/06/23 12:41:24;;;;;;;2.30;2.10;;;25.30;94.60;;;;;;5067031;28;20033;-78
2023/06/23 12:44:03;;;;;;;2.05;1.83;;;25.20;94.20;;;;;;5061630;28;20101;-78
2023/06/23 12:46:30;;;;;;;4.43;1.85;;;25.10;93.40;;;;;;5066937;28;20032;-76
2023/06/23 12:48:57;;;;;;;2.53;2.22;;;25.10;94.10;;;;;;5043195;28;20053;-81
2023/06/23 12:51:32;;;;;;;3.83;2.38;;;25.10;94.30;;;;;;5065621;28;20071;-81
2023/06/23 12:53:59;;;;;;;4.90;2.08;;;25.10;94.20;;;;;;5050085;28;20050;-81